Time;durP1;ratioP1;P1;durP2;ratioP2;P2;SDS_P1;SDS_P2;PMS_P1;PMS_P2;Temp;Humidity;BMP_temperature;BMP_pressure;BME280_temperature;BME280_humidity;BME280_pressure;Samples;Min_cycle;Max_cycle;Signal;HPM_P1;HPM_P2
2022/07/25 00:02:18;;;;;;;;;;;28.60;48.60;;;;;;5001527;28;20358;-68
2022/07/25 00:04:44;;;;;;;;;;;28.60;48.60;;;;;;5008429;28;19922;-65
2022/07/25 00:07:13;;;;;;;;;;;28.60;48.60;;;;;;5007699;28;20083;-66
2022/07/25 00:09:39;;;;;;;;;;;28.60;48.60;;;;;;5001171;28;19921;-74
2022/07/25 00:12:04;;;;;;;;;;;28.60;48.60;;;;;;5007035;28;19932;-67
2022/07/25 00:14:30;;;;;;;;;;;28.60;48.60;;;;;;5001106;28;19920;-70
2022/07/25 00:16:56;;;;;;;;;;;28.60;48.60;;;;;;5002317;28;19992;-70
2022/07/25 00:19:21;;;;;;;;;;;28.60;48.60;;;;;;5002540;28;19971;-67
2022/07/25 00:21:47;;;;;;;;;;;28.60;48.60;;;;;;4999380;28;19917;-69
2022/07/25 00:24:12;;;;;;;;;;;28.60;48.60;;;;;;5001458;28;20498;-71
2022/07/25 00:26:38;;;;;;;;;;;28.60;48.60;;;;;;5001209;28;19929;-66
2022/07/25 00:29:04;;;;;;;;;;;28.60;48.60;;;;;;5008687;28;20032;-68
2022/07/25 00:31:29;;;;;;;;;;;28.60;48.60;;;;;;5000741;28;20042;-68
2022/07/25 00:33:55;;;;;;;;;;;28.60;48.60;;;;;;4999265;28;19914;-68
2022/07/25 00:36:24;;;;;;;;;;;28.60;48.60;;;;;;4999595;28;19918;-67
2022/07/25 00:38:49;;;;;;;;;;;28.60;48.60;;;;;;5000882;28;19921;-67
2022/07/25 00:41:15;;;;;;;;;;;28.60;48.60;;;;;;5007412;28;19967;-71
2022/07/25 00:43:50;;;;;;;;;;;28.60;48.60;;;;;;5009044;28;20264;-70
2022/07/25 00:46:15;;;;;;;;;;;28.60;48.60;;;;;;5016545;28;19921;-66
2022/07/25 00:48:41;;;;;;;;;;;28.60;48.60;;;;;;5005750;28;19979;-65
2022/07/25 00:51:08;;;;;;;;;;;28.50;48.60;;;;;;4998634;28;19921;-71
2022/07/25 00:53:34;;;;;;;;;;;28.50;48.50;;;;;;5000802;28;19917;-71
2022/07/25 00:56:00;;;;;;;;;;;28.50;48.50;;;;;;4999451;28;19928;-65
2022/07/25 00:58:26;;;;;;;;;;;28.50;48.50;;;;;;5009794;28;20004;-68
2022/07/25 01:00:54;;;;;;;;;;;28.50;48.50;;;;;;5004774;28;20003;-67
2022/07/25 01:03:19;;;;;;;;;;;28.50;48.50;;;;;;5009208;28;20386;-67
2022/07/25 01:05:45;;;;;;;;;;;28.50;48.50;;;;;;4998703;28;19932;-72
2022/07/25 01:08:11;;;;;;;;;;;28.50;48.50;;;;;;5004336;28;19937;-72
2022/07/25 01:10:37;;;;;;;;;;;28.50;48.50;;;;;;4999596;28;21146;-66
2022/07/25 01:13:02;;;;;;;;;;;28.50;48.50;;;;;;5000948;28;19913;-67
2022/07/25 01:15:28;;;;;;;;;;;28.50;48.50;;;;;;5000213;28;20033;-71
2022/07/25 01:17:53;;;;;;;;;;;28.50;48.50;;;;;;5011010;28;20300;-71
2022/07/25 01:20:26;;;;;;;;;;;28.50;48.50;;;;;;4998240;28;20408;-67
2022/07/25 01:22:52;;;;;;;;;;;28.50;48.50;;;;;;5006658;28;20908;-68
2022/07/25 01:25:18;;;;;;;;;;;28.60;48.50;;;;;;5001042;28;19913;-66
2022/07/25 01:27:44;;;;;;;;;;;28.50;48.50;;;;;;5008918;28;19921;-73
2022/07/25 01:30:12;;;;;;;;;;;28.60;48.60;;;;;;5000891;28;19957;-71
2022/07/25 01:32:37;;;;;;;;;;;28.50;48.50;;;;;;4999229;28;20762;-72
2022/07/25 01:35:04;;;;;;;;;;;28.50;48.50;;;;;;5000566;28;20354;-71
2022/07/25 01:37:30;;;;;;;;;;;28.50;48.50;;;;;;4998548;28;19924;-68
2022/07/25 01:39:55;;;;;;;;;;;28.50;48.50;;;;;;5001705;28;19917;-73
2022/07/25 01:42:21;;;;;;;;;;;28.50;48.50;;;;;;5000037;28;19921;-68
2022/07/25 01:44:46;;;;;;;;;;;28.50;48.50;;;;;;5002043;28;19917;-71
2022/07/25 01:47:12;;;;;;;;;;;28.50;48.50;;;;;;4999467;28;20324;-67
2022/07/25 01:49:38;;;;;;;;;;;28.50;48.50;;;;;;5000685;28;19917;-67
2022/07/25 01:52:03;;;;;;;;;;;28.50;48.60;;;;;;5002036;28;19921;-70
2022/07/25 01:54:29;;;;;;;;;;;28.50;49.10;;;;;;5000070;28;19917;-66
2022/07/25 01:56:54;;;;;;;;;;;28.50;48.50;;;;;;4998834;28;19918;-70
2022/07/25 01:59:20;;;;;;;;;;;28.50;48.50;;;;;;4999690;28;20178;-65
2022/07/25 02:01:45;;;;;;;;;;;28.50;48.50;;;;;;4999774;28;19928;-66
2022/07/25 02:04:11;;;;;;;;;;;28.50;48.60;;;;;;5007402;28;19928;-67
2022/07/25 02:06:36;;;;;;;;;;;28.40;48.50;;;;;;4995819;28;19974;-66
2022/07/25 02:09:03;;;;;;;;;;;28.50;48.60;;;;;;5007530;28;19917;-67
2022/07/25 02:11:28;;;;;;;;;;;28.40;48.60;;;;;;4997540;28;19913;-70
2022/07/25 02:13:54;;;;;;;;;;;28.40;48.50;;;;;;4998935;28;19928;-71
2022/07/25 02:16:19;;;;;;;;;;;28.40;48.50;;;;;;4999176;28;19914;-66
2022/07/25 02:18:45;;;;;;;;;;;28.40;48.50;;;;;;4999418;28;19921;-71
2022/07/25 02:21:10;;;;;;;;;;;28.40;48.50;;;;;;4994506;28;19914;-71
2022/07/25 02:23:36;;;;;;;;;;;28.40;48.50;;;;;;5008750;28;19921;-66
2022/07/25 02:26:02;;;;;;;;;;;28.40;48.50;;;;;;4998634;28;19917;-67
2022/07/25 02:28:28;;;;;;;;;;;28.40;48.50;;;;;;5001324;28;20282;-70
2022/07/25 02:30:53;;;;;;;;;;;28.40;48.50;;;;;;5001008;28;19966;-65
2022/07/25 02:33:19;;;;;;;;;;;28.40;48.60;;;;;;5007386;28;19913;-67
2022/07/25 02:35:44;;;;;;;;;;;28.40;48.50;;;;;;5004285;28;20055;-71
2022/07/25 02:38:18;;;;;;;;;;;28.40;48.50;;;;;;4998240;28;19917;-66
2022/07/25 02:40:44;;;;;;;;;;;28.40;48.50;;;;;;4996750;28;19922;-68
2022/07/25 02:43:10;;;;;;;;;;;28.40;48.50;;;;;;5000517;28;19975;-70
2022/07/25 02:45:35;;;;;;;;;;;28.40;48.50;;;;;;4997194;28;20761;-72
2022/07/25 02:48:01;;;;;;;;;;;28.40;48.50;;;;;;4996561;28;20292;-71
2022/07/25 02:50:26;;;;;;;;;;;28.40;48.50;;;;;;4996927;28;20356;-74
2022/07/25 02:52:52;;;;;;;;;;;28.40;48.50;;;;;;4999196;28;19983;-68
2022/07/25 02:55:17;;;;;;;;;;;28.40;48.50;;;;;;4995758;28;19917;-65
2022/07/25 02:57:43;;;;;;;;;;;28.40;48.50;;;;;;5005686;28;19917;-71
2022/07/25 03:00:09;;;;;;;;;;;28.40;48.50;;;;;;4997621;28;19917;-71
2022/07/25 03:02:34;;;;;;;;;;;28.40;48.50;;;;;;4998008;28;19929;-70
2022/07/25 03:05:00;;;;;;;;;;;28.40;48.50;;;;;;4998024;28;20729;-64
2022/07/25 03:07:25;;;;;;;;;;;28.40;48.50;;;;;;5004051;28;19933;-72
2022/07/25 03:09:51;;;;;;;;;;;28.40;48.50;;;;;;5006895;28;19953;-71
2022/07/25 03:12:16;;;;;;;;;;;28.40;48.50;;;;;;4993427;28;19959;-70
2022/07/25 03:14:42;;;;;;;;;;;28.40;48.50;;;;;;4998674;28;19928;-66
2022/07/25 03:17:07;;;;;;;;;;;28.40;48.50;;;;;;4997936;28;20436;-68
2022/07/25 03:19:33;;;;;;;;;;;28.40;48.10;;;;;;4998144;28;19921;-72
2022/07/25 03:21:58;;;;;;;;;;;28.40;47.00;;;;;;4995885;28;20368;-66
2022/07/25 03:24:24;;;;;;;;;;;28.40;46.00;;;;;;4998896;28;20699;-71
2022/07/25 03:26:49;;;;;;;;;;;28.30;45.10;;;;;;4994249;28;19960;-72
2022/07/25 03:29:15;;;;;;;;;;;28.30;44.90;;;;;;5002816;28;19924;-68
2022/07/25 03:31:40;;;;;;;;;;;28.20;44.60;;;;;;4997188;28;20007;-73
2022/07/25 03:34:06;;;;;;;;;;;28.10;44.60;;;;;;5006498;28;19917;-67
2022/07/25 03:36:31;;;;;;;;;;;28.10;44.60;;;;;;4994093;28;20385;-71
2022/07/25 03:38:57;;;;;;;;;;;28.00;44.90;;;;;;4999648;28;19913;-68
2022/07/25 03:41:22;;;;;;;;;;;28.00;45.00;;;;;;5017319;28;19921;-69
2022/07/25 03:43:48;;;;;;;;;;;27.90;45.20;;;;;;5003458;28;19940;-68
2022/07/25 03:46:13;;;;;;;;;;;27.90;44.80;;;;;;5007726;28;19917;-68
2022/07/25 03:48:39;;;;;;;;;;;27.80;44.80;;;;;;5003021;28;19921;-68
2022/07/25 03:51:05;;;;;;;;;;;27.80;45.00;;;;;;5005135;28;19921;-69
2022/07/25 03:53:30;;;;;;;;;;;27.70;45.10;;;;;;5001636;28;20382;-69
2022/07/25 03:55:55;;;;;;;;;;;27.70;45.30;;;;;;5002078;28;19996;-69
2022/07/25 03:58:21;;;;;;;;;;;27.60;45.00;;;;;;5002797;28;20290;-68
2022/07/25 04:00:47;;;;;;;;;;;27.60;45.20;;;;;;5001326;28;19984;-72
2022/07/25 04:03:13;;;;;;;;;;;27.60;45.30;;;;;;5001627;28;19913;-70
2022/07/25 04:05:39;;;;;;;;;;;27.60;45.30;;;;;;5000614;28;19917;-73
2022/07/25 04:08:04;;;;;;;;;;;27.60;45.40;;;;;;5001602;28;19921;-67
2022/07/25 04:10:30;;;;;;;;;;;27.50;45.10;;;;;;5006452;28;19917;-67
2022/07/25 04:12:55;;;;;;;;;;;27.40;45.20;;;;;;5001864;28;20020;-72
2022/07/25 04:15:21;;;;;;;;;;;27.40;45.30;;;;;;5000936;28;20032;-67
2022/07/25 04:17:46;;;;;;;;;;;27.30;45.30;;;;;;5001884;28;19956;-67
2022/07/25 04:20:12;;;;;;;;;;;27.20;45.60;;;;;;5007042;28;19972;-68
2022/07/25 04:22:38;;;;;;;;;;;27.20;45.60;;;;;;5000353;28;19921;-72
2022/07/25 04:25:05;;;;;;;;;;;27.20;45.60;;;;;;5002552;28;20492;-67
2022/07/25 04:27:30;;;;;;;;;;;27.10;45.70;;;;;;5003223;28;20073;-67
2022/07/25 04:29:55;;;;;;;;;;;27.10;45.70;;;;;;5001989;28;20064;-70
2022/07/25 04:32:21;;;;;;;;;;;27.00;45.80;;;;;;5000018;28;20028;-73
2022/07/25 04:34:47;;;;;;;;;;;26.90;45.70;;;;;;5001708;28;20235;-72
2022/07/25 04:37:12;;;;;;;;;;;26.90;45.90;;;;;;5000027;28;19918;-72
2022/07/25 04:39:38;;;;;;;;;;;26.90;45.80;;;;;;5004002;28;19929;-70
2022/07/25 04:42:03;;;;;;;;;;;26.90;46.00;;;;;;5005830;28;20290;-67
2022/07/25 04:44:29;;;;;;;;;;;26.90;46.00;;;;;;5000527;28;20259;-73
2022/07/25 04:46:54;;;;;;;;;;;26.90;46.00;;;;;;5006793;28;19925;-73
2022/07/25 04:49:20;;;;;;;;;;;26.90;46.10;;;;;;5000837;28;19914;-69
2022/07/25 04:51:45;;;;;;;;;;;26.90;46.10;;;;;;4996369;28;20427;-73
2022/07/25 04:54:11;;;;;;;;;;;26.90;46.20;;;;;;5013276;28;19925;-70
2022/07/25 04:56:36;;;;;;;;;;;26.80;46.20;;;;;;5014983;28;20008;-65
2022/07/25 04:59:02;;;;;;;;;;;26.80;46.30;;;;;;5001913;28;19929;-66
2022/07/25 05:01:27;;;;;;;;;;;26.80;46.30;;;;;;4994887;28;19921;-67
2022/07/25 05:03:53;;;;;;;;;;;26.80;46.40;;;;;;5000996;28;19917;-67
2022/07/25 05:06:18;;;;;;;;;;;26.80;46.40;;;;;;5002549;28;19926;-73
2022/07/25 05:08:44;;;;;;;;;;;26.80;46.50;;;;;;5000933;28;19917;-68
2022/07/25 05:11:10;;;;;;;;;;;26.80;46.50;;;;;;4998791;28;19952;-66
2022/07/25 05:13:35;;;;;;;;;;;26.80;46.50;;;;;;4997319;28;19968;-67
2022/07/25 05:16:01;;;;;;;;;;;26.90;46.60;;;;;;4998505;28;19959;-66
2022/07/25 05:18:27;;;;;;;;;;;26.80;46.60;;;;;;4998093;28;19924;-66
2022/07/25 05:20:53;;;;;;;;;;;26.80;46.60;;;;;;4997058;28;19913;-66
2022/07/25 05:23:18;;;;;;;;;;;26.80;46.70;;;;;;4997694;28;20385;-72
2022/07/25 05:25:44;;;;;;;;;;;26.80;46.70;;;;;;5005820;28;20344;-72
2022/07/25 05:28:10;;;;;;;;;;;26.80;46.80;;;;;;5003160;28;19929;-64
2022/07/25 05:30:35;;;;;;;;;;;26.90;47.00;;;;;;4999489;28;19925;-68
2022/07/25 05:33:01;;;;;;;;;;;26.90;46.90;;;;;;5010511;28;19985;-71
2022/07/25 05:35:26;;;;;;;;;;;26.90;46.90;;;;;;4998602;28;19917;-71
2022/07/25 05:37:52;;;;;;;;;;;26.90;46.80;;;;;;5011140;28;21203;-69
2022/07/25 05:40:18;;;;;;;;;;;26.90;46.90;;;;;;4998598;28;19921;-68
2022/07/25 05:42:44;;;;;;;;;;;26.90;46.80;;;;;;5005735;28;19941;-71
2022/07/25 05:45:09;;;;;;;;;;;26.90;46.80;;;;;;5007026;28;19940;-70
2022/07/25 05:47:35;;;;;;;;;;;27.00;46.90;;;;;;5008619;28;20389;-70
2022/07/25 05:50:00;;;;;;;;;;;26.90;46.90;;;;;;5006714;28;20342;-65
2022/07/25 05:52:26;;;;;;;;;;;26.90;46.90;;;;;;4998449;28;19984;-67
2022/07/25 05:54:51;;;;;;;;;;;27.00;47.00;;;;;;4999008;28;20334;-66
2022/07/25 05:57:17;;;;;;;;;;;27.00;47.00;;;;;;5001022;28;19925;-63
2022/07/25 05:59:42;;;;;;;;;;;27.00;47.00;;;;;;5005981;28;19914;-67
2022/07/25 06:02:08;;;;;;;;;;;27.00;47.00;;;;;;4997345;28;20310;-63
2022/07/25 06:04:34;;;;;;;;;;;27.00;47.10;;;;;;5001257;28;19918;-68
2022/07/25 06:06:59;;;;;;;;;;;27.00;47.10;;;;;;5000743;28;19982;-65
2022/07/25 06:09:25;;;;;;;;;;;27.00;47.10;;;;;;5001634;28;19921;-66
2022/07/25 06:11:50;;;;;;;;;;;27.00;47.10;;;;;;5000713;28;19918;-73
2022/07/25 06:14:19;;;;;;;;;;;27.00;47.10;;;;;;5001451;28;19963;-71
2022/07/25 06:16:47;;;;;;;;;;;27.00;47.10;;;;;;5002035;28;19976;-71
2022/07/25 06:19:13;;;;;;;;;;;27.00;47.20;;;;;;5001788;28;19916;-65
2022/07/25 06:21:38;;;;;;;;;;;27.00;47.20;;;;;;4999938;28;21280;-69
2022/07/25 06:24:04;;;;;;;;;;;27.00;47.20;;;;;;4999121;28;20478;-68
2022/07/25 06:26:29;;;;;;;;;;;27.00;47.20;;;;;;5000310;28;20671;-67
2022/07/25 06:28:55;;;;;;;;;;;27.00;47.20;;;;;;5007503;28;19921;-66
2022/07/25 06:31:20;;;;;;;;;;;27.00;47.30;;;;;;5002004;28;20377;-71
2022/07/25 06:33:46;;;;;;;;;;;27.00;47.30;;;;;;5007703;28;20365;-65
2022/07/25 06:36:11;;;;;;;;;;;27.00;47.30;;;;;;5005886;28;19918;-66
2022/07/25 06:38:37;;;;;;;;;;;26.90;47.20;;;;;;5007724;28;20012;-64
2022/07/25 06:41:02;;;;;;;;;;;27.00;47.30;;;;;;4998937;28;19991;-72
2022/07/25 06:43:28;;;;;;;;;;;27.00;47.30;;;;;;4998978;28;19936;-71
2022/07/25 06:45:53;;;;;;;;;;;27.00;47.30;;;;;;4999887;28;19927;-72
2022/07/25 06:48:19;;;;;;;;;;;27.00;47.30;;;;;;5003895;28;19938;-69
2022/07/25 06:50:45;;;;;;;;;;;27.00;47.40;;;;;;4998978;28;19964;-72
2022/07/25 06:53:11;;;;;;;;;;;27.00;47.40;;;;;;5011854;28;19914;-71
2022/07/25 06:55:36;;;;;;;;;;;26.90;47.30;;;;;;5000873;28;20464;-67
2022/07/25 06:58:02;;;;;;;;;;;27.00;47.50;;;;;;4998289;28;20374;-68
2022/07/25 07:00:28;;;;;;;;;;;27.00;47.40;;;;;;4998430;28;20366;-65
2022/07/25 07:02:57;;;;;;;;;;;27.00;47.50;;;;;;5000410;28;20396;-64
2022/07/25 07:05:23;;;;;;;;;;;27.00;47.50;;;;;;5000941;28;19948;-71
2022/07/25 07:07:49;;;;;;;;;;;27.00;47.50;;;;;;4998020;28;21108;-65
2022/07/25 07:10:15;;;;;;;;;;;27.00;47.50;;;;;;5009870;28;19939;-70
2022/07/25 07:12:41;;;;;;;;;;;27.00;47.50;;;;;;4998477;28;19928;-71
2022/07/25 07:15:06;;;;;;;;;;;27.00;47.50;;;;;;5008198;28;20428;-65
2022/07/25 07:17:32;;;;;;;;;;;27.00;47.50;;;;;;5000991;28;19913;-64
2022/07/25 07:19:58;;;;;;;;;;;27.00;47.50;;;;;;4998129;28;19917;-70
2022/07/25 07:22:23;;;;;;;;;;;27.00;47.50;;;;;;4997868;28;19921;-68
2022/07/25 07:24:49;;;;;;;;;;;27.00;47.50;;;;;;4998786;28;19922;-72
2022/07/25 07:27:15;;;;;;;;;;;27.00;47.50;;;;;;5006743;28;20284;-68
2022/07/25 07:29:40;;;;;;;;;;;27.00;47.50;;;;;;4999560;28;20372;-68
2022/07/25 07:32:06;;;;;;;;;;;27.00;47.50;;;;;;4998826;28;19921;-66
2022/07/25 07:34:32;;;;;;;;;;;27.00;47.50;;;;;;5001911;28;19983;-71
2022/07/25 07:36:57;;;;;;;;;;;27.00;47.60;;;;;;5006315;28;20378;-71
2022/07/25 07:39:23;;;;;;;;;;;27.00;47.60;;;;;;5001543;28;19921;-71
2022/07/25 07:41:48;;;;;;;;;;;27.00;47.50;;;;;;4997603;28;19953;-67
2022/07/25 07:44:14;;;;;;;;;;;27.00;47.60;;;;;;5009335;28;19956;-71
2022/07/25 07:46:40;;;;;;;;;;;27.00;47.50;;;;;;5005373;28;19989;-64
2022/07/25 07:49:06;;;;;;;;;;;27.10;47.60;;;;;;4998169;28;19971;-72
2022/07/25 07:51:31;;;;;;;;;;;27.00;47.60;;;;;;5003720;28;19989;-69
2022/07/25 07:56:41;;;;;;;;;;;27.00;47.50;;;;;;4999711;28;20281;-65
2022/07/25 07:59:07;;;;;;;;;;;27.00;47.60;;;;;;4998824;28;19921;-69
2022/07/25 08:01:33;;;;;;;;;;;27.10;47.60;;;;;;4999123;28;20397;-65
2022/07/25 08:03:58;;;;;;;;;;;27.00;47.60;;;;;;5005329;28;19914;-66
2022/07/25 08:06:26;;;;;;;;;;;27.00;47.60;;;;;;4998353;28;19925;-65
2022/07/25 08:08:52;;;;;;;;;;;27.10;47.70;;;;;;4999315;28;20523;-66
2022/07/25 08:11:17;;;;;;;;;;;27.00;47.50;;;;;;5008696;28;19921;-65
2022/07/25 08:13:45;;;;;;;;;;;27.10;47.60;;;;;;4999818;28;19924;-68
2022/07/25 08:16:12;;;;;;;;;;;27.10;47.70;;;;;;5000157;28;19917;-70
2022/07/25 08:18:38;;;;;;;;;;;27.10;47.60;;;;;;5006150;28;19989;-67
2022/07/25 08:21:05;;;;;;;;;;;27.10;47.60;;;;;;4996257;28;20045;-71
2022/07/25 08:23:34;;;;;;;;;;;27.10;47.60;;;;;;4998895;28;19967;-71
2022/07/25 08:26:03;;;;;;;;;;;27.10;47.60;;;;;;5001996;28;20373;-66
2022/07/25 08:28:28;;;;;;;;;;;27.10;47.60;;;;;;5002746;28;19968;-68
2022/07/25 08:30:54;;;;;;;;;;;27.10;47.60;;;;;;5009601;28;19965;-66
2022/07/25 08:33:24;;;;;;;;;;;27.10;47.60;;;;;;5002595;28;20223;-70
2022/07/25 08:35:52;;;;;;;;;;;27.10;47.60;;;;;;5010278;28;20355;-69
2022/07/25 08:38:18;;;;;;;;;;;27.10;47.60;;;;;;5011149;28;19917;-65
2022/07/25 08:40:51;;;;;;;;;;;27.10;47.60;;;;;;5011345;28;20043;-68
2022/07/25 08:43:16;;;;;;;;;;;27.10;47.60;;;;;;5003130;28;19917;-67
2022/07/25 08:45:46;;;;;;;;;;;27.10;47.60;;;;;;5013745;28;19928;-70
2022/07/25 08:48:12;;;;;;;;;;;27.20;47.70;;;;;;5009019;28;20321;-70
2022/07/25 08:50:38;;;;;;;;;;;27.10;47.60;;;;;;5000905;28;19913;-66
2022/07/25 08:53:04;;;;;;;;;;;27.10;47.60;;;;;;4999503;28;20003;-67
2022/07/25 08:55:29;;;;;;;;;;;27.10;47.60;;;;;;5001247;28;19917;-68
2022/07/25 08:57:55;;;;;;;;;;;27.10;47.60;;;;;;5004400;28;19921;-65
2022/07/25 09:00:26;;;;;;;;;;;27.10;47.50;;;;;;5000134;28;20000;-68
2022/07/25 09:02:53;;;;;;;;;;;27.10;47.50;;;;;;5005918;28;19963;-67
2022/07/25 09:05:20;;;;;;;;;;;27.10;47.50;;;;;;5002023;28;19928;-67
2022/07/25 09:07:48;;;;;;;;;;;27.20;47.60;;;;;;5000850;28;19926;-67
2022/07/25 09:10:15;;;;;;;;;;;27.20;47.60;;;;;;5002110;28;19913;-65
2022/07/25 09:12:42;;;;;;;;;;;27.20;47.60;;;;;;5001131;28;20304;-71
2022/07/25 09:15:08;;;;;;;;;;;27.20;47.60;;;;;;4999377;28;20396;-65
2022/07/25 09:17:36;;;;;;;;;;;27.20;47.50;;;;;;5002111;28;20045;-66
2022/07/25 09:20:03;;;;;;;;;;;27.20;47.50;;;;;;5003970;28;19944;-71
2022/07/25 09:22:29;;;;;;;;;;;27.20;47.50;;;;;;5004399;28;20006;-64
2022/07/25 09:24:54;;;;;;;;;;;27.20;47.50;;;;;;5009711;28;19917;-71
2022/07/25 09:27:20;;;;;;;;;;;27.20;47.50;;;;;;5001535;28;19959;-71
2022/07/25 09:29:46;;;;;;;;;;;27.20;47.50;;;;;;5001607;28;19921;-71
2022/07/25 09:32:16;;;;;;;;;;;27.20;47.50;;;;;;4997576;28;20625;-70
2022/07/25 09:34:43;;;;;;;;;;;27.20;47.50;;;;;;5000418;28;19920;-71
2022/07/25 09:37:11;;;;;;;;;;;27.20;47.50;;;;;;4999527;28;19917;-70
2022/07/25 09:39:39;;;;;;;;;;;27.20;47.50;;;;;;5001274;28;19913;-68
2022/07/25 09:42:15;;;;;;;;;;;27.30;47.50;;;;;;5015229;28;19971;-66
2022/07/25 09:44:41;;;;;;;;;;;27.30;48.00;;;;;;5012242;28;20331;-71
2022/07/25 09:47:11;;;;;;;;;;;27.30;47.50;;;;;;4998169;28;20047;-68
2022/07/25 09:49:40;;;;;;;;;;;27.30;47.50;;;;;;5009375;28;20302;-68
2022/07/25 09:52:06;;;;;;;;;;;27.30;47.50;;;;;;5007103;28;20350;-65
2022/07/25 09:54:33;;;;;;;;;;;27.30;47.70;;;;;;5000872;28;19920;-70
2022/07/25 09:56:58;;;;;;;;;;;27.30;47.40;;;;;;5011489;28;20170;-67
2022/07/25 09:59:24;;;;;;;;;;;27.30;47.50;;;;;;5002022;28;19917;-70
2022/07/25 10:02:09;;;;;;;;;;;27.30;47.40;;;;;;4997457;28;19967;-70
2022/07/25 10:04:38;;;;;;;;;;;27.30;47.40;;;;;;5000725;28;20084;-72
2022/07/25 10:07:08;;;;;;;;;;;27.30;47.50;;;;;;4997636;28;20413;-71
2022/07/25 10:09:40;;;;;;;;;;;27.30;47.50;;;;;;4998034;28;20141;-67
2022/07/25 10:12:07;;;;;;;;;;;27.30;47.50;;;;;;4999273;28;19924;-66
2022/07/25 10:14:33;;;;;;;;;;;27.30;47.50;;;;;;4999014;28;19960;-66
2022/07/25 10:17:00;;;;;;;;;;;27.30;47.50;;;;;;5000001;28;19913;-67
2022/07/25 10:19:45;;;;;;;;;;;27.30;47.50;;;;;;5010270;28;20004;-67
2022/07/25 10:22:11;;;;;;;;;;;27.30;47.50;;;;;;5008816;28;20031;-68
2022/07/25 10:24:37;;;;;;;;;;;27.30;47.60;;;;;;4997795;28;19953;-71
2022/07/25 10:27:07;;;;;;;;;;;27.30;47.60;;;;;;5000687;28;19928;-71
2022/07/25 10:29:34;;;;;;;;;;;27.30;47.60;;;;;;5000883;28;19917;-71
2022/07/25 10:32:07;;;;;;;;;;;27.40;47.70;;;;;;5002645;28;19932;-70
2022/07/25 10:34:33;;;;;;;;;;;27.30;47.60;;;;;;4998177;28;19921;-69
2022/07/25 10:37:20;;;;;;;;;;;27.40;47.70;;;;;;5007986;28;19921;-67
2022/07/25 10:39:47;;;;;;;;;;;27.40;47.70;;;;;;4998494;28;19914;-67
2022/07/25 10:42:16;;;;;;;;;;;27.40;47.70;;;;;;4999695;28;19924;-64
2022/07/25 10:44:43;;;;;;;;;;;27.40;47.80;;;;;;4999561;28;19953;-66
2022/07/25 10:47:10;;;;;;;;;;;27.40;47.80;;;;;;4997150;28;19928;-71
2022/07/25 10:49:38;;;;;;;;;;;27.40;47.80;;;;;;5005216;28;19948;-65
2022/07/25 10:52:04;;;;;;;;;;;27.40;47.80;;;;;;4995268;28;19921;-71
2022/07/25 10:54:37;;;;;;;;;;;27.40;47.80;;;;;;5011876;28;19987;-67
2022/07/25 10:57:06;;;;;;;;;;;27.40;47.70;;;;;;4998329;28;19917;-68
2022/07/25 10:59:35;;;;;;;;;;;27.40;47.70;;;;;;5003721;28;19924;-68
2022/07/25 11:02:02;;;;;;;;;;;27.40;47.80;;;;;;5002771;28;20308;-66
2022/07/25 11:04:29;;;;;;;;;;;27.40;47.90;;;;;;4997592;28;19913;-72
2022/07/25 11:06:54;;;;;;;;;;;27.40;47.90;;;;;;5004398;28;19925;-71
2022/07/25 11:09:27;;;;;;;;;;;27.40;47.90;;;;;;4997672;28;19920;-65
2022/07/25 11:11:54;;;;;;;;;;;27.40;47.90;;;;;;4996806;28;19917;-67
2022/07/25 11:14:24;;;;;;;;;;;27.40;48.00;;;;;;4998571;28;19921;-71
2022/07/25 11:16:51;;;;;;;;;;;27.40;47.90;;;;;;5006868;28;19994;-71
2022/07/25 11:19:17;;;;;;;;;;;27.40;47.90;;;;;;4997099;28;19928;-66
2022/07/25 11:21:47;;;;;;;;;;;27.40;47.80;;;;;;4998498;28;19944;-72
2022/07/25 11:24:12;;;;;;;;;;;27.50;48.00;;;;;;4996386;28;19944;-71
2022/07/25 11:26:48;;;;;;;;;;;27.40;47.80;;;;;;5005521;28;19925;-71
2022/07/25 11:29:18;;;;;;;;;;;27.40;47.80;;;;;;5012224;28;20443;-66
2022/07/25 11:31:50;;;;;;;;;;;27.50;47.80;;;;;;4995737;28;20008;-64
2022/07/25 11:34:15;;;;;;;;;;;27.40;47.90;;;;;;4997064;28;19913;-67
2022/07/25 11:36:41;;;;;;;;;;;27.50;47.90;;;;;;5000315;28;19921;-69
2022/07/25 11:39:06;;;;;;;;;;;27.50;47.80;;;;;;5001249;28;20037;-71
2022/07/25 11:41:32;;;;;;;;;;;27.50;47.80;;;;;;5000547;28;20954;-70
2022/07/25 11:43:57;;;;;;;;;;;27.50;47.80;;;;;;5001392;28;19924;-69
2022/07/25 11:46:23;;;;;;;;;;;27.50;47.90;;;;;;4995872;28;20288;-69
2022/07/25 11:48:48;;;;;;;;;;;27.50;47.90;;;;;;5009746;28;19914;-66
2022/07/25 11:51:15;;;;;;;;;;;27.50;47.80;;;;;;5000945;28;19941;-71
2022/07/25 11:53:41;;;;;;;;;;;27.50;47.80;;;;;;4997467;28;20441;-70
2022/07/25 11:56:18;;;;;;;;;;;27.50;48.00;;;;;;4997136;28;20006;-68
2022/07/25 11:58:49;;;;;;;;;;;27.50;48.00;;;;;;4998889;28;19951;-65
2022/07/25 12:01:15;;;;;;;;;;;27.50;48.00;;;;;;5000825;28;19953;-71
2022/07/25 12:03:41;;;;;;;;;;;27.50;48.00;;;;;;5001882;28;20003;-66
2022/07/25 12:06:10;;;;;;;;;;;27.50;47.90;;;;;;5005783;28;19921;-71
2022/07/25 12:08:37;;;;;;;;;;;27.50;48.00;;;;;;5006310;28;19991;-68
2022/07/25 12:11:03;;;;;;;;;;;27.50;48.00;;;;;;4999613;28;19918;-67
2022/07/25 12:13:29;;;;;;;;;;;27.50;48.00;;;;;;5007721;28;19940;-68
2022/07/25 12:15:55;;;;;;;;;;;27.50;48.00;;;;;;5003401;28;20350;-66
2022/07/25 12:18:24;;;;;;;;;;;27.60;48.10;;;;;;5003026;28;19924;-71
2022/07/25 12:20:50;;;;;;;;;;;27.60;48.10;;;;;;5009318;28;20290;-68
2022/07/25 12:23:15;;;;;;;;;;;27.50;48.20;;;;;;5018024;28;19925;-72
2022/07/25 12:25:42;;;;;;;;;;;27.60;48.20;;;;;;5000431;28;20332;-69
2022/07/25 12:28:09;;;;;;;;;;;27.60;48.20;;;;;;5000685;28;19921;-67
2022/07/25 12:30:36;;;;;;;;;;;27.60;48.30;;;;;;5000329;28;20166;-69
2022/07/25 12:33:05;;;;;;;;;;;27.60;48.40;;;;;;5000905;28;20252;-66
2022/07/25 12:35:31;;;;;;;;;;;27.60;48.40;;;;;;4999251;28;20315;-67
2022/07/25 12:37:56;;;;;;;;;;;27.60;48.50;;;;;;5000511;28;19988;-66
2022/07/25 12:40:22;;;;;;;;;;;27.60;48.60;;;;;;4999931;28;19924;-70
2022/07/25 12:42:48;;;;;;;;;;;27.60;48.70;;;;;;5009208;28;19913;-64
2022/07/25 12:45:15;;;;;;;;;;;27.60;48.60;;;;;;5009240;28;19925;-66
2022/07/25 12:47:42;;;;;;;;;;;27.60;48.60;;;;;;5001376;28;21739;-69
2022/07/25 12:50:08;;;;;;;;;;;27.60;48.60;;;;;;5001632;28;19956;-71
2022/07/25 12:52:34;;;;;;;;;;;27.60;48.50;;;;;;4999474;28;19968;-66
2022/07/25 12:54:59;;;;;;;;;;;27.70;48.50;;;;;;5007465;28;20012;-70
2022/07/25 12:57:25;;;;;;;;;;;27.60;48.40;;;;;;5001668;28;19917;-65
2022/07/25 12:59:50;;;;;;;;;;;27.70;48.40;;;;;;5007815;28;20023;-71
2022/07/25 13:02:16;;;;;;;;;;;27.70;48.40;;;;;;4997834;28;20309;-68
2022/07/25 13:04:42;;;;;;;;;;;27.70;48.40;;;;;;4998674;28;19921;-68
2022/07/25 13:07:07;;;;;;;;;;;27.70;48.40;;;;;;5000623;28;19925;-72
2022/07/25 13:09:33;;;;;;;;;;;27.70;48.40;;;;;;5002312;28;19996;-69
2022/07/25 13:11:58;;;;;;;;;;;27.70;48.40;;;;;;4997492;28;19925;-66
2022/07/25 13:14:24;;;;;;;;;;;27.70;48.40;;;;;;5009808;28;19917;-69
2022/07/25 13:16:50;;;;;;;;;;;27.70;48.40;;;;;;5000211;28;19921;-69
2022/07/25 13:19:16;;;;;;;;;;;27.70;48.40;;;;;;5001918;28;19917;-70
2022/07/25 13:21:42;;;;;;;;;;;27.70;48.40;;;;;;5000552;28;20057;-71
2022/07/25 13:24:08;;;;;;;;;;;27.70;48.40;;;;;;5001187;28;19928;-71
2022/07/25 13:26:35;;;;;;;;;;;27.70;48.40;;;;;;5008171;28;19914;-71
2022/07/25 13:29:00;;;;;;;;;;;27.80;48.50;;;;;;5010170;28;19928;-68
2022/07/25 13:31:26;;;;;;;;;;;27.70;48.50;;;;;;5006207;28;19942;-68
2022/07/25 13:33:52;;;;;;;;;;;27.80;48.50;;;;;;4998714;28;19975;-66
2022/07/25 13:36:20;;;;;;;;;;;27.80;48.60;;;;;;5004245;28;20479;-64
2022/07/25 13:38:46;;;;;;;;;;;27.80;48.50;;;;;;4999283;28;20317;-64
2022/07/25 13:41:12;;;;;;;;;;;27.80;48.50;;;;;;4995077;28;19917;-69
2022/07/25 13:43:42;;;;;;;;;;;27.80;48.60;;;;;;5006102;28;19960;-71
2022/07/25 13:46:07;;;;;;;;;;;27.80;48.60;;;;;;5001264;28;20273;-69
2022/07/25 13:48:33;;;;;;;;;;;27.80;48.60;;;;;;5001312;28;19932;-72
2022/07/25 13:51:00;;;;;;;;;;;27.80;48.70;;;;;;4998526;28;19917;-72
2022/07/25 13:53:25;;;;;;;;;;;27.80;48.60;;;;;;5003927;28;20373;-68
2022/07/25 13:55:51;;;;;;;;;;;27.80;48.60;;;;;;5003965;28;19929;-66
2022/07/25 13:58:16;;;;;;;;;;;27.80;48.60;;;;;;5000202;28;19921;-66
2022/07/25 14:00:42;;;;;;;;;;;27.80;48.60;;;;;;4998407;28;19974;-65
2022/07/25 14:03:08;;;;;;;;;;;27.80;48.60;;;;;;4997515;28;20565;-70
2022/07/25 14:05:33;;;;;;;;;;;27.90;48.70;;;;;;4998405;28;19917;-70
2022/07/25 14:07:59;;;;;;;;;;;27.90;48.70;;;;;;4996714;28;19927;-68
2022/07/25 14:10:25;;;;;;;;;;;27.80;48.60;;;;;;5006504;28;20456;-69
2022/07/25 14:12:50;;;;;;;;;;;27.90;48.60;;;;;;4998000;28;19917;-67
2022/07/25 14:15:16;;;;;;;;;;;27.90;48.70;;;;;;4997606;28;19959;-70